Time;durP1;ratioP1;P1;durP2;ratioP2;P2;SDS_P1;SDS_P2;PMS_P1;PMS_P2;Temp;Humidity;BMP_temperature;BMP_pressure;BME280_temperature;BME280_humidity;BME280_pressure;Samples;Min_cycle;Max_cycle;Signal;HPM_P1;HPM_P2
2023/09/11 00:01:32;;;;;;;7.80;6.05;;;;;;;;;;5015886;28;20033;-59
2023/09/11 00:03:58;;;;;;;13.60;9.23;;;;;;;;;;4998484;28;20133;-60
2023/09/11 00:06:24;;;;;;;29.23;16.05;;;;;;;;;;5016032;28;20030;-59
2023/09/11 00:08:50;;;;;;;49.45;26.60;;;;;;;;;;5016230;28;20037;-59
2023/09/11 00:11:16;;;;;;;29.05;18.20;;;;;;;;;;5016194;28;20034;-59
2023/09/11 00:13:42;;;;;;;18.40;10.98;;;;;;;;;;5016235;28;20038;-64
2023/09/11 00:16:08;;;;;;;10.82;7.70;;;;;;;;;;5016196;28;20389;-64
2023/09/11 00:18:33;;;;;;;7.65;5.47;;;;;;;;;;5015717;28;20018;-64
2023/09/11 00:20:59;;;;;;;6.80;5.22;;;;;;;;;;5015915;28;20043;-64
2023/09/11 00:23:24;;;;;;;7.22;4.82;;;;;;;;;;5015696;28;20125;-67
2023/09/11 00:25:49;;;;;;;6.28;5.50;;;;;;;;;;5016002;28;20160;-64
2023/09/11 00:28:15;;;;;;;6.88;5.70;;;;;;;;;;4998095;28;20125;-65
2023/09/11 00:30:40;;;;;;;11.48;5.72;;;;;;;;;;4997792;28;20084;-59
2023/09/11 00:33:06;;;;;;;7.38;5.45;;;;;;;;;;5015729;28;20363;-60
2023/09/11 00:35:31;;;;;;;6.22;5.07;;;;;;;;;;5015277;28;20038;-59
2023/09/11 00:37:56;;;;;;;5.38;4.90;;;;;;;;;;5015486;28;20029;-60
2023/09/11 00:40:22;;;;;;;6.28;5.22;;;;;;;;;;5015444;28;20109;-61
2023/09/11 00:42:47;;;;;;;6.20;5.60;;;;;;;;;;5015133;28;20382;-60
2023/09/11 00:45:13;;;;;;;8.40;6.13;;;;;;;;;;5015160;28;20068;-60
2023/09/11 00:47:39;;;;;;;10.75;7.22;;;;;;;;;;5015160;28;20109;-60
2023/09/11 00:50:07;;;;;;;8.20;5.90;;;;;;;;;;5014500;28;20037;-59
2023/09/11 00:52:32;;;;;;;8.25;6.13;;;;;;;;;;4997726;28;20018;-59
2023/09/11 00:54:58;;;;;;;7.13;5.68;;;;;;;;;;5014936;28;20034;-66
2023/09/11 00:57:23;;;;;;;6.25;5.65;;;;;;;;;;4997553;28;20030;-65
2023/09/11 00:59:49;;;;;;;7.00;6.30;;;;;;;;;;4997818;28;20022;-59
2023/09/11 01:02:15;;;;;;;6.20;5.63;;;;;;;;;;4997706;28;20438;-59
2023/09/11 01:04:41;;;;;;;11.32;6.38;;;;;;;;;;4997559;28;20026;-59
2023/09/11 01:07:07;;;;;;;6.72;5.93;;;;;;;;;;4996908;28;20426;-66
2023/09/11 01:09:33;;;;;;;6.50;5.78;;;;;;;;;;4996894;28;20119;-65
2023/09/11 01:11:58;;;;;;;5.68;5.20;;;;;;;;;;4997490;28;20049;-64
2023/09/11 01:14:35;;;;;;;6.32;5.07;;;;;;;;;;5014946;28;20446;-64
2023/09/11 01:17:20;;;;;;;5.72;5.18;;;;;;;;;;5014548;28;20481;-59
2023/09/11 01:19:52;;;;;;;7.00;5.43;;;;;;;;;;5013905;28;20033;-59
2023/09/11 01:22:23;;;;;;;8.05;5.65;;;;;;;;;;5034146;28;20401;-64
2023/09/11 01:24:58;;;;;;;6.35;5.28;;;;;;;;;;5017066;28;20026;-64
2023/09/11 01:27:43;;;;;;;7.53;5.82;;;;;;;;;;5016187;28;20060;-59
2023/09/11 01:30:11;;;;;;;6.40;5.60;;;;;;;;;;5016700;28;20025;-59
2023/09/11 01:32:47;;;;;;;7.25;6.00;;;;;;;;;;5033906;28;20028;-59
2023/09/11 01:35:13;;;;;;;6.75;5.95;;;;;;;;;;5034048;28;20457;-59
2023/09/11 01:37:38;;;;;;;6.60;5.63;;;;;;;;;;5016347;28;20026;-59
2023/09/11 01:40:04;;;;;;;6.82;5.43;;;;;;;;;;5016076;28;20096;-59
2023/09/11 01:42:36;;;;;;;6.50;5.75;;;;;;;;;;5016955;28;20068;-59
2023/09/11 01:45:04;;;;;;;8.27;5.50;;;;;;;;;;5016129;28;20030;-59
2023/09/11 01:47:30;;;;;;;8.60;5.63;;;;;;;;;;5016013;28;20026;-59
2023/09/11 01:49:57;;;;;;;7.45;5.60;;;;;;;;;;5025893;23;20045;-59
2023/09/11 01:52:23;;;;;;;6.38;5.75;;;;;;;;;;5058056;23;20053;-65
2023/09/11 01:54:49;;;;;;;7.05;5.82;;;;;;;;;;5056712;23;20065;-65
2023/09/11 01:57:15;;;;;;;6.22;5.63;;;;;;;;;;5045148;23;20057;-65
2023/09/11 01:59:41;;;;;;;6.97;5.70;;;;;;;;;;4999537;28;20058;-65
2023/09/11 02:02:15;;;;;;;7.07;5.85;;;;;;;;;;5049337;23;20057;-66
2023/09/11 02:04:40;;;;;;;6.20;5.60;;;;;;;;;;5023207;23;20731;-64
2023/09/11 02:07:05;;;;;;;7.40;6.05;;;;;;;;;;5073230;23;20088;-60
2023/09/11 02:09:31;;;;;;;7.15;5.63;;;;;;;;;;5087016;23;20025;-67
2023/09/11 02:11:56;;;;;;;7.03;6.22;;;;;;;;;;5032152;28;20037;-66
2023/09/11 02:14:22;;;;;;;5.75;5.25;;;;;;;;;;5033577;28;20509;-66
2023/09/11 02:16:48;;;;;;;6.55;5.75;;;;;;;;;;5015586;28;20021;-66
2023/09/11 02:19:13;;;;;;;6.97;5.25;;;;;;;;;;5033378;28;20058;-66
2023/09/11 02:21:39;;;;;;;6.65;5.75;;;;;;;;;;5016023;28;20041;-66
2023/09/11 02:24:04;;;;;;;6.03;5.43;;;;;;;;;;5033403;28;20124;-66
2023/09/11 02:26:30;;;;;;;6.57;5.97;;;;;;;;;;5015730;28;20033;-66
2023/09/11 02:28:59;;;;;;;7.38;5.05;;;;;;;;;;5015623;28;20032;-67
2023/09/11 02:31:25;;;;;;;9.18;5.72;;;;;;;;;;5015540;28;20038;-67
2023/09/11 02:33:51;;;;;;;6.28;5.15;;;;;;;;;;5033353;28;20385;-67
2023/09/11 02:36:18;;;;;;;5.97;4.85;;;;;;;;;;5015759;28;20386;-67
2023/09/11 02:38:44;;;;;;;5.45;4.50;;;;;;;;;;5033485;28;20087;-66
2023/09/11 02:41:09;;;;;;;4.95;4.50;;;;;;;;;;5015397;28;20478;-66
2023/09/11 02:43:35;;;;;;;5.50;4.78;;;;;;;;;;5015411;28;20024;-66
2023/09/11 02:46:01;;;;;;;7.20;5.78;;;;;;;;;;4999228;28;20028;-67
2023/09/11 02:48:27;;;;;;;5.90;5.35;;;;;;;;;;5015386;28;20033;-67
2023/09/11 02:50:52;;;;;;;13.57;5.90;;;;;;;;;;5015498;28;20030;-65
2023/09/11 02:53:18;;;;;;;6.20;5.60;;;;;;;;;;5015209;28;20108;-65
2023/09/11 02:55:43;;;;;;;6.10;5.50;;;;;;;;;;5015311;28;20022;-65
2023/09/11 02:58:09;;;;;;;7.93;5.32;;;;;;;;;;5015364;28;20030;-66
2023/09/11 03:00:35;;;;;;;7.10;5.45;;;;;;;;;;5033565;28;20026;-66
2023/09/11 03:03:01;;;;;;;6.00;4.97;;;;;;;;;;5015207;28;20072;-66
2023/09/11 03:05:27;;;;;;;5.55;5.05;;;;;;;;;;5033253;28;20064;-66
2023/09/11 03:07:53;;;;;;;7.93;6.28;;;;;;;;;;5032934;28;20029;-65
2023/09/11 03:10:18;;;;;;;6.20;5.65;;;;;;;;;;5015261;28;20477;-65
2023/09/11 03:12:43;;;;;;;9.35;5.60;;;;;;;;;;5034812;28;20068;-65
2023/09/11 03:15:15;;;;;;;5.90;4.45;;;;;;;;;;5036639;28;20084;-66
2023/09/11 03:17:41;;;;;;;6.55;5.03;;;;;;;;;;5018624;28;20029;-66
2023/09/11 03:20:07;;;;;;;5.28;4.82;;;;;;;;;;5036423;28;20029;-67
2023/09/11 03:22:33;;;;;;;5.40;4.35;;;;;;;;;;5036716;28;20025;-65
2023/09/11 03:24:58;;;;;;;4.60;4.13;;;;;;;;;;5018442;28;20099;-64
2023/09/11 03:27:23;;;;;;;4.45;4.05;;;;;;;;;;5018435;28;20029;-64
2023/09/11 03:29:52;;;;;;;5.53;4.72;;;;;;;;;;5002153;28;20080;-64
2023/09/11 03:32:17;;;;;;;5.35;4.80;;;;;;;;;;5018353;28;20551;-65
2023/09/11 03:34:43;;;;;;;7.13;5.10;;;;;;;;;;5035950;28;20033;-64
2023/09/11 03:37:08;;;;;;;4.70;4.03;;;;;;;;;;5018294;28;20018;-65
2023/09/11 03:39:34;;;;;;;3.97;3.72;;;;;;;;;;5018256;28;20025;-65
2023/09/11 03:41:59;;;;;;;5.00;4.45;;;;;;;;;;5018314;28;20037;-65
2023/09/11 03:44:25;;;;;;;5.72;5.15;;;;;;;;;;5018120;28;20069;-64
2023/09/11 03:46:51;;;;;;;5.82;5.38;;;;;;;;;;5018062;28;20037;-65
2023/09/11 03:49:16;;;;;;;8.75;4.88;;;;;;;;;;5001779;28;20026;-64
2023/09/11 03:51:42;;;;;;;6.57;5.45;;;;;;;;;;5017006;28;20115;-66
2023/09/11 03:54:09;;;;;;;6.00;5.40;;;;;;;;;;5017131;28;20175;-65
2023/09/11 03:56:34;;;;;;;7.70;5.10;;;;;;;;;;5017136;28;20372;-64
2023/09/11 03:59:00;;;;;;;8.00;5.80;;;;;;;;;;5035913;28;20104;-64
2023/09/11 04:01:25;;;;;;;5.95;5.25;;;;;;;;;;5017807;28;20113;-64
2023/09/11 04:03:51;;;;;;;6.03;5.30;;;;;;;;;;5001835;28;20048;-66
2023/09/11 04:06:16;;;;;;;8.13;5.78;;;;;;;;;;5035980;28;20087;-66
2023/09/11 04:08:42;;;;;;;6.25;5.63;;;;;;;;;;5017644;28;20029;-65
2023/09/11 04:11:07;;;;;;;6.00;5.22;;;;;;;;;;5017659;28;20080;-65
2023/09/11 04:13:33;;;;;;;5.38;4.82;;;;;;;;;;5017348;28;20026;-65
2023/09/11 04:15:59;;;;;;;7.05;4.90;;;;;;;;;;5015117;28;20036;-65
2023/09/11 04:18:24;;;;;;;5.95;5.25;;;;;;;;;;5034393;28;20100;-65
2023/09/11 04:20:50;;;;;;;6.65;5.18;;;;;;;;;;5034860;28;20025;-65
2023/09/11 04:23:15;;;;;;;5.78;4.30;;;;;;;;;;5035307;28;20104;-65
2023/09/11 04:25:43;;;;;;;4.82;4.43;;;;;;;;;;5000825;28;20041;-66
2023/09/11 04:28:09;;;;;;;5.00;4.15;;;;;;;;;;4999655;28;20090;-66
2023/09/11 04:30:34;;;;;;;4.25;3.92;;;;;;;;;;5017541;28;20034;-66
2023/09/11 04:33:01;;;;;;;4.75;4.40;;;;;;;;;;5016978;28;20035;-67
2023/09/11 04:35:26;;;;;;;4.88;4.38;;;;;;;;;;5017502;28;20025;-66
2023/09/11 04:37:52;;;;;;;4.45;4.07;;;;;;;;;;5017375;28;20163;-65
2023/09/11 04:40:18;;;;;;;4.40;4.03;;;;;;;;;;5016978;28;20032;-66
2023/09/11 04:42:44;;;;;;;4.10;3.80;;;;;;;;;;5017433;28;20037;-66
2023/09/11 04:45:10;;;;;;;3.75;3.45;;;;;;;;;;5016976;28;20028;-66
2023/09/11 04:47:36;;;;;;;4.07;3.70;;;;;;;;;;5017102;28;20074;-67
2023/09/11 04:50:01;;;;;;;4.32;3.90;;;;;;;;;;5016440;28;20107;-66
2023/09/11 04:52:27;;;;;;;4.45;4.07;;;;;;;;;;5015368;28;20033;-66
2023/09/11 04:54:53;;;;;;;4.10;3.80;;;;;;;;;;5015968;28;20488;-64
2023/09/11 04:57:18;;;;;;;4.80;4.32;;;;;;;;;;4999580;28;20032;-62
2023/09/11 04:59:44;;;;;;;4.18;3.78;;;;;;;;;;5015705;28;20025;-62
2023/09/11 05:02:10;;;;;;;5.20;4.05;;;;;;;;;;5015598;28;20072;-62
2023/09/11 05:04:35;;;;;;;4.05;3.72;;;;;;;;;;5015581;28;20033;-62
2023/09/11 05:07:01;;;;;;;4.65;4.20;;;;;;;;;;5014850;28;20487;-62
2023/09/11 05:09:27;;;;;;;4.90;4.22;;;;;;;;;;4995676;28;20402;-63
2023/09/11 05:11:52;;;;;;;5.43;4.00;;;;;;;;;;5013889;28;20049;-63
2023/09/11 05:14:18;;;;;;;7.07;4.13;;;;;;;;;;5012450;28;20034;-63
2023/09/11 05:16:44;;;;;;;4.72;4.22;;;;;;;;;;5012089;28;20037;-61
2023/09/11 05:19:10;;;;;;;8.13;4.18;;;;;;;;;;5010561;28;20026;-62
2023/09/11 05:21:36;;;;;;;4.93;4.47;;;;;;;;;;4999523;28;20025;-62
2023/09/11 05:24:03;;;;;;;5.93;4.88;;;;;;;;;;5033639;28;20062;-61
2023/09/11 05:26:28;;;;;;;5.47;5.07;;;;;;;;;;5033489;28;20024;-62
2023/09/11 05:28:54;;;;;;;5.68;4.90;;;;;;;;;;5033398;28;20037;-62
2023/09/11 05:31:19;;;;;;;7.38;5.38;;;;;;;;;;5033405;28;20022;-62
2023/09/11 05:33:45;;;;;;;9.27;5.53;;;;;;;;;;5032995;28;20044;-62
2023/09/11 05:36:11;;;;;;;5.93;4.80;;;;;;;;;;5033328;28;20116;-62
2023/09/11 05:38:37;;;;;;;5.32;4.68;;;;;;;;;;5032756;28;20025;-62
2023/09/11 05:41:02;;;;;;;5.55;4.40;;;;;;;;;;5033098;28;20021;-62
2023/09/11 05:43:28;;;;;;;5.30;4.80;;;;;;;;;;5033549;28;20025;-62
2023/09/11 05:45:54;;;;;;;7.20;5.03;;;;;;;;;;5025353;28;20025;-62
2023/09/11 05:48:19;;;;;;;6.40;5.80;;;;;;;;;;5017946;28;20112;-62
2023/09/11 05:50:44;;;;;;;8.82;6.32;;;;;;;;;;5020600;28;20121;-62
2023/09/11 05:53:10;;;;;;;6.15;5.68;;;;;;;;;;5001836;28;20492;-62
2023/09/11 05:55:36;;;;;;;7.03;5.82;;;;;;;;;;5016509;28;20088;-62
2023/09/11 05:58:02;;;;;;;9.00;6.18;;;;;;;;;;4995599;28;20032;-62
2023/09/11 06:00:29;;;;;;;7.85;6.18;;;;;;;;;;5012787;28;20034;-62
2023/09/11 06:02:55;;;;;;;6.82;6.15;;;;;;;;;;5012481;28;20038;-62
2023/09/11 06:05:20;;;;;;;7.53;6.20;;;;;;;;;;4995370;28;20502;-62
2023/09/11 06:07:46;;;;;;;7.43;6.63;;;;;;;;;;5013346;28;20370;-62
2023/09/11 06:10:12;;;;;;;10.93;8.38;;;;;;;;;;5013059;28;20037;-62
2023/09/11 06:12:38;;;;;;;13.27;8.82;;;;;;;;;;5013431;28;20091;-61
2023/09/11 06:15:04;;;;;;;23.10;13.73;;;;;;;;;;5013600;28;20037;-61
2023/09/11 06:17:29;;;;;;;35.28;19.17;;;;;;;;;;5013416;28;20470;-62
2023/09/11 06:19:55;;;;;;;35.55;20.20;;;;;;;;;;4996062;28;20105;-62
2023/09/11 06:22:20;;;;;;;39.97;21.42;;;;;;;;;;5013334;28;20033;-61
2023/09/11 06:24:45;;;;;;;36.22;20.48;;;;;;;;;;5013353;28;20548;-61
2023/09/11 06:27:13;;;;;;;27.63;18.10;;;;;;;;;;5013300;28;20513;-61
2023/09/11 06:29:38;;;;;;;28.52;17.73;;;;;;;;;;5013278;28;20026;-62
2023/09/11 06:32:04;;;;;;;26.35;16.70;;;;;;;;;;4995679;28;20500;-62
2023/09/11 06:34:29;;;;;;;21.08;13.95;;;;;;;;;;5013131;28;20029;-61
2023/09/11 06:36:55;;;;;;;20.50;13.52;;;;;;;;;;5013156;28;20018;-61
2023/09/11 06:39:21;;;;;;;14.25;10.95;;;;;;;;;;5013169;28;20510;-61
2023/09/11 06:41:46;;;;;;;11.20;8.77;;;;;;;;;;5013178;28;20026;-62
2023/09/11 06:44:11;;;;;;;8.75;7.78;;;;;;;;;;5013114;28;20465;-62
2023/09/11 06:46:37;;;;;;;11.98;8.50;;;;;;;;;;5013092;28;20398;-62
2023/09/11 06:49:03;;;;;;;11.93;9.80;;;;;;;;;;5016533;28;20116;-62
2023/09/11 06:51:28;;;;;;;10.75;8.98;;;;;;;;;;5016846;28;20037;-61
2023/09/11 06:53:54;;;;;;;8.52;7.35;;;;;;;;;;5016692;28;20033;-62
2023/09/11 06:56:19;;;;;;;8.13;6.97;;;;;;;;;;5016723;28;20465;-62
2023/09/11 06:58:45;;;;;;;8.07;7.00;;;;;;;;;;5016741;28;20113;-61
2023/09/11 07:01:10;;;;;;;9.70;7.00;;;;;;;;;;5016672;28;20026;-62
2023/09/11 07:03:36;;;;;;;9.90;7.55;;;;;;;;;;5016521;28;20388;-62
2023/09/11 07:06:02;;;;;;;10.25;8.15;;;;;;;;;;4998944;28;20026;-62
2023/09/11 07:08:28;;;;;;;8.50;7.65;;;;;;;;;;5016583;28;20044;-62
2023/09/11 07:10:54;;;;;;;10.20;8.45;;;;;;;;;;5016235;28;20105;-62
2023/09/11 07:13:19;;;;;;;12.88;8.13;;;;;;;;;;5016428;28;20087;-62
2023/09/11 07:15:52;;;;;;;9.35;7.78;;;;;;;;;;5016319;28;20030;-62
2023/09/11 07:18:18;;;;;;;10.30;6.40;;;;;;;;;;5016640;28;20168;-62
2023/09/11 07:20:46;;;;;;;8.25;7.20;;;;;;;;;;4998833;28;20498;-62
2023/09/11 07:23:12;;;;;;;8.52;7.72;;;;;;;;;;4998605;28;20030;-62
2023/09/11 07:25:37;;;;;;;7.32;6.20;;;;;;;;;;5016198;28;20045;-62
2023/09/11 07:28:03;;;;;;;8.73;6.35;;;;;;;;;;5016218;28;20038;-62
2023/09/11 07:30:28;;;;;;;7.88;6.50;;;;;;;;;;4998566;28;20040;-62
2023/09/11 07:32:53;;;;;;;8.88;7.95;;;;;;;;;;5016045;28;20038;-62
2023/09/11 07:35:20;;;;;;;7.15;6.15;;;;;;;;;;5016005;28;20030;-62
2023/09/11 07:37:45;;;;;;;6.43;5.88;;;;;;;;;;4998451;28;20030;-61
2023/09/11 07:40:11;;;;;;;8.75;5.97;;;;;;;;;;4998376;28;20038;-62
2023/09/11 07:42:36;;;;;;;6.30;5.78;;;;;;;;;;5015831;28;20034;-62
2023/09/11 07:45:01;;;;;;;7.53;6.82;;;;;;;;;;5015819;28;20108;-62
2023/09/11 07:47:27;;;;;;;6.75;6.10;;;;;;;;;;5015873;28;20061;-62
2023/09/11 07:49:53;;;;;;;7.72;5.72;;;;;;;;;;5015703;28;20367;-62
2023/09/11 07:52:18;;;;;;;7.22;6.53;;;;;;;;;;5015680;28;20045;-61
2023/09/11 07:54:44;;;;;;;5.85;5.35;;;;;;;;;;5015574;28;20030;-61
2023/09/11 07:57:09;;;;;;;7.97;5.70;;;;;;;;;;5015608;28;20032;-62
2023/09/11 07:59:34;;;;;;;6.15;5.45;;;;;;;;;;5014347;28;20045;-62
2023/09/11 08:02:01;;;;;;;6.25;5.63;;;;;;;;;;4998030;28;20062;-61
2023/09/11 08:04:26;;;;;;;6.95;6.20;;;;;;;;;;5015513;28;20030;-61
2023/09/11 08:06:52;;;;;;;6.57;5.13;;;;;;;;;;5015387;28;20551;-61
2023/09/11 08:09:17;;;;;;;8.32;6.15;;;;;;;;;;5015415;28;20135;-62
2023/09/11 08:11:42;;;;;;;6.57;5.97;;;;;;;;;;5015240;28;20060;-62
2023/09/11 08:14:08;;;;;;;5.75;5.25;;;;;;;;;;5015274;28;20041;-61
2023/09/11 08:16:33;;;;;;;6.28;5.68;;;;;;;;;;5015214;28;20408;-62
2023/09/11 08:18:59;;;;;;;8.30;6.15;;;;;;;;;;4997657;28;20045;-62
2023/09/11 08:21:24;;;;;;;5.63;5.13;;;;;;;;;;5015182;28;20022;-62
2023/09/11 08:23:49;;;;;;;10.27;6.20;;;;;;;;;;5015174;28;20033;-62
2023/09/11 08:26:15;;;;;;;6.80;5.35;;;;;;;;;;5015030;28;20022;-62
2023/09/11 08:28:41;;;;;;;7.72;5.28;;;;;;;;;;5015121;28;20030;-62
2023/09/11 08:31:06;;;;;;;5.80;5.30;;;;;;;;;;5014979;28;20029;-62
2023/09/11 08:33:32;;;;;;;7.35;6.07;;;;;;;;;;5014845;28;20026;-62
2023/09/11 08:35:57;;;;;;;6.95;5.30;;;;;;;;;;4997355;28;20449;-61
2023/09/11 08:38:24;;;;;;;6.72;5.97;;;;;;;;;;5014941;28;20029;-61
2023/09/11 08:40:49;;;;;;;5.53;5.03;;;;;;;;;;5014846;28;20024;-61
2023/09/11 08:43:15;;;;;;;6.20;5.75;;;;;;;;;;4997232;28;20117;-62
2023/09/11 08:45:40;;;;;;;5.47;5.03;;;;;;;;;;5014744;28;20061;-62
2023/09/11 08:48:11;;;;;;;4.93;4.53;;;;;;;;;;5014745;28;20038;-61
2023/09/11 08:50:42;;;;;;;5.18;4.68;;;;;;;;;;5014601;28;20041;-61
2023/09/11 08:53:08;;;;;;;5.53;4.80;;;;;;;;;;5014649;28;20393;-61
2023/09/11 08:55:33;;;;;;;5.00;4.65;;;;;;;;;;5014460;28;20026;-62
2023/09/11 08:58:06;;;;;;;5.43;5.00;;;;;;;;;;5014455;28;20030;-62
2023/09/11 09:00:32;;;;;;;5.53;5.03;;;;;;;;;;5014466;28;20025;-62
2023/09/11 09:02:59;;;;;;;6.28;5.70;;;;;;;;;;4997057;28;20438;-61
2023/09/11 09:05:25;;;;;;;5.70;5.13;;;;;;;;;;5014496;28;20481;-61
2023/09/11 09:07:51;;;;;;;5.10;4.63;;;;;;;;;;4996689;28;20055;-62
2023/09/11 09:10:16;;;;;;;6.13;5.13;;;;;;;;;;5013869;28;20053;-62
2023/09/11 09:12:42;;;;;;;8.65;5.68;;;;;;;;;;5014308;28;20038;-62
2023/09/11 09:15:09;;;;;;;6.00;5.50;;;;;;;;;;5014052;28;20494;-61
2023/09/11 09:17:35;;;;;;;7.88;6.20;;;;;;;;;;5014137;28;20068;-62
2023/09/11 09:20:00;;;;;;;5.75;5.30;;;;;;;;;;5014143;28;20056;-62
2023/09/11 09:22:26;;;;;;;7.05;5.40;;;;;;;;;;5014111;28;20022;-62
2023/09/11 09:24:52;;;;;;;6.93;6.18;;;;;;;;;;5014071;28;20112;-62
2023/09/11 09:27:18;;;;;;;7.78;6.53;;;;;;;;;;5013972;28;20025;-62
2023/09/11 09:29:44;;;;;;;8.82;6.82;;;;;;;;;;5013950;28;20504;-62
2023/09/11 09:32:10;;;;;;;7.05;6.45;;;;;;;;;;5014230;28;20389;-62
2023/09/11 09:34:36;;;;;;;6.65;6.07;;;;;;;;;;5013793;28;20041;-61
2023/09/11 09:37:01;;;;;;;6.10;4.78;;;;;;;;;;5013909;28;20363;-61
2023/09/11 09:39:28;;;;;;;6.60;6.00;;;;;;;;;;5013847;28;20022;-61
2023/09/11 09:41:55;;;;;;;9.57;6.38;;;;;;;;;;5013757;28;20037;-61
2023/09/11 09:44:39;;;;;;;6.80;5.68;;;;;;;;;;5013795;28;20033;-61
2023/09/11 09:47:06;;;;;;;6.68;6.18;;;;;;;;;;5013766;28;20394;-62
2023/09/11 09:49:34;;;;;;;6.40;5.90;;;;;;;;;;5013682;28;20034;-62
2023/09/11 09:51:59;;;;;;;5.80;5.30;;;;;;;;;;5013680;28;20421;-62
2023/09/11 09:54:40;;;;;;;8.38;6.28;;;;;;;;;;5013596;28;20041;-62
2023/09/11 09:57:08;;;;;;;5.60;5.20;;;;;;;;;;5013627;28;20029;-62
2023/09/11 09:59:33;;;;;;;6.63;6.03;;;;;;;;;;5013529;28;20069;-62
2023/09/11 10:01:59;;;;;;;5.40;4.90;;;;;;;;;;5013589;28;20480;-62
2023/09/11 10:04:25;;;;;;;6.68;6.13;;;;;;;;;;5013557;28;20026;-62
2023/09/11 10:06:54;;;;;;;5.25;4.85;;;;;;;;;;5013484;28;20198;-62
2023/09/11 10:09:20;;;;;;;4.90;4.47;;;;;;;;;;5013432;28;20061;-62
2023/09/11 10:11:46;;;;;;;5.57;5.07;;;;;;;;;;5013256;28;20482;-62
2023/09/11 10:14:11;;;;;;;7.10;6.50;;;;;;;;;;5013380;28;20034;-62
2023/09/11 10:16:36;;;;;;;6.82;6.13;;;;;;;;;;5013319;28;20537;-62
2023/09/11 10:19:03;;;;;;;6.70;6.10;;;;;;;;;;4995790;28;20030;-62
2023/09/11 10:21:29;;;;;;;7.28;6.65;;;;;;;;;;5013362;28;20038;-62
2023/09/11 10:23:54;;;;;;;8.10;6.35;;;;;;;;;;5016774;28;20045;-62
2023/09/11 10:26:23;;;;;;;6.43;5.82;;;;;;;;;;5017406;28;20030;-62
2023/09/11 10:28:49;;;;;;;5.75;5.25;;;;;;;;;;5017294;28;20017;-62
2023/09/11 10:31:23;;;;;;;5.30;4.80;;;;;;;;;;4999723;28;20030;-62
2023/09/11 10:33:54;;;;;;;5.03;4.32;;;;;;;;;;5017121;28;20056;-62
2023/09/11 10:36:21;;;;;;;5.65;4.88;;;;;;;;;;5017122;28;20080;-62
2023/09/11 10:38:47;;;;;;;4.70;4.28;;;;;;;;;;5017100;28;20022;-62
2023/09/11 10:41:13;;;;;;;5.05;4.13;;;;;;;;;;5017033;28;20026;-62
2023/09/11 10:43:38;;;;;;;7.68;5.70;;;;;;;;;;5016941;28;20435;-62
2023/09/11 10:46:22;;;;;;;6.72;5.57;;;;;;;;;;5016988;28;20034;-62
2023/09/11 10:48:47;;;;;;;6.57;5.88;;;;;;;;;;5016924;28;20030;-62
2023/09/11 10:51:13;;;;;;;6.10;4.80;;;;;;;;;;5016849;28;20022;-62
2023/09/11 10:53:48;;;;;;;8.68;5.95;;;;;;;;;;5016832;28;20034;-62
2023/09/11 10:56:14;;;;;;;10.48;6.30;;;;;;;;;;5016746;28;20028;-62
2023/09/11 10:58:40;;;;;;;5.97;5.38;;;;;;;;;;5016743;28;20033;-62
2023/09/11 11:01:05;;;;;;;6.60;5.43;;;;;;;;;;5016774;28;20386;-62
2023/09/11 11:03:32;;;;;;;7.40;5.53;;;;;;;;;;4982909;28;20485;-62
2023/09/11 11:05:58;;;;;;;6.20;5.63;;;;;;;;;;5016537;28;20038;-62
2023/09/11 11:08:23;;;;;;;6.00;5.40;;;;;;;;;;5016597;28;20045;-62
2023/09/11 11:10:52;;;;;;;6.00;5.50;;;;;;;;;;5016334;28;20073;-62
2023/09/11 11:13:18;;;;;;;7.75;6.60;;;;;;;;;;5016436;28;20037;-62
2023/09/11 11:15:43;;;;;;;5.93;5.10;;;;;;;;;;5016426;28;20036;-62
2023/09/11 11:18:15;;;;;;;6.40;5.43;;;;;;;;;;5016573;28;20105;-62
2023/09/11 11:20:59;;;;;;;6.40;5.55;;;;;;;;;;5016400;28;20026;-62
2023/09/11 11:23:25;;;;;;;8.88;6.95;;;;;;;;;;5016303;28;20032;-62
2023/09/11 11:25:50;;;;;;;8.93;5.80;;;;;;;;;;5016205;28;20036;-62
2023/09/11 11:28:16;;;;;;;8.80;6.43;;;;;;;;;;5016125;28;20084;-62
2023/09/11 11:30:47;;;;;;;6.43;4.75;;;;;;;;;;5016102;28;20117;-62
2023/09/11 11:33:12;;;;;;;;;;;;;;;;;;5016322;28;20040;-62
2023/09/11 11:35:37;;;;;;;6.38;5.13;;;;;;;;;;5015943;28;19917;-62
2023/09/11 11:38:03;;;;;;;7.53;5.90;;;;;;;;;;5015965;28;20022;-62
2023/09/11 11:40:28;;;;;;;6.28;5.43;;;;;;;;;;5015924;28;20029;-62
2023/09/11 11:42:54;;;;;;;6.63;5.22;;;;;;;;;;5015836;28;20017;-62
2023/09/11 11:45:20;;;;;;;7.55;4.78;;;;;;;;;;4998362;28;20034;-62
2023/09/11 11:47:45;;;;;;;6.90;5.38;;;;;;;;;;4998210;28;20076;-62
2023/09/11 11:50:11;;;;;;;6.38;5.00;;;;;;;;;;5015823;28;20121;-62
2023/09/11 11:52:36;;;;;;;6.90;5.97;;;;;;;;;;5015700;28;20037;-62
2023/09/11 11:55:14;;;;;;;11.43;6.95;;;;;;;;;;4998070;28;20036;-62
2023/09/11 11:57:39;;;;;;;5.47;4.88;;;;;;;;;;5015703;28;20029;-62
2023/09/11 12:00:09;;;;;;;7.97;5.45;;;;;;;;;;5015640;28;20032;-63
2023/09/11 12:02:35;;;;;;;5.53;5.03;;;;;;;;;;5015547;28;20041;-63
2023/09/11 12:05:00;;;;;;;6.43;4.95;;;;;;;;;;5015545;28;20030;-63
2023/09/11 12:07:26;;;;;;;8.93;6.28;;;;;;;;;;5015441;28;20042;-62
2023/09/11 12:09:51;;;;;;;7.53;6.68;;;;;;;;;;5015236;28;20565;-62
2023/09/11 12:12:16;;;;;;;10.13;6.43;;;;;;;;;;5015300;28;20061;-62
2023/09/11 12:14:42;;;;;;;7.45;6.75;;;;;;;;;;5015238;28;20025;-62
2023/09/11 12:17:08;;;;;;;5.80;5.07;;;;;;;;;;5015338;28;20060;-62
2023/09/11 12:19:33;;;;;;;6.00;5.38;;;;;;;;;;4997609;28;20029;-62
2023/09/11 12:21:59;;;;;;;6.25;5.65;;;;;;;;;;4997962;28;20033;-63
2023/09/11 12:24:25;;;;;;;9.02;6.20;;;;;;;;;;5015129;28;20018;-62
2023/09/11 12:26:50;;;;;;;7.72;7.00;;;;;;;;;;5015196;28;20470;-62
2023/09/11 12:29:15;;;;;;;7.47;6.15;;;;;;;;;;4997874;28;20064;-62
2023/09/11 12:31:41;;;;;;;6.03;5.53;;;;;;;;;;5015325;28;20026;-62
2023/09/11 12:34:06;;;;;;;7.70;5.38;;;;;;;;;;5015451;28;20382;-62
2023/09/11 12:36:33;;;;;;;6.60;5.72;;;;;;;;;;4997573;28;20026;-62
2023/09/11 12:38:59;;;;;;;8.55;5.85;;;;;;;;;;5015113;28;20477;-62
2023/09/11 12:41:26;;;;;;;5.95;5.40;;;;;;;;;;5015136;28;20021;-62
2023/09/11 12:43:51;;;;;;;7.30;5.78;;;;;;;;;;5015312;28;20033;-62
2023/09/11 12:46:17;;;;;;;6.32;5.70;;;;;;;;;;5014396;28;20109;-62
2023/09/11 12:48:44;;;;;;;9.13;7.07;;;;;;;;;;5015003;28;20492;-62
2023/09/11 12:51:10;;;;;;;9.40;7.47;;;;;;;;;;5014946;28;20033;-62
2023/09/11 12:53:36;;;;;;;10.00;7.47;;;;;;;;;;5014913;28;20390;-62
2023/09/11 12:56:01;;;;;;;10.05;7.70;;;;;;;;;;5015046;28;20034;-62
2023/09/11 12:58:26;;;;;;;7.88;6.65;;;;;;;;;;5015377;28;20114;-62
2023/09/11 13:00:52;;;;;;;7.90;7.00;;;;;;;;;;4997558;28;20148;-62
2023/09/11 13:03:17;;;;;;;7.47;6.28;;;;;;;;;;5014736;28;20025;-62
2023/09/11 13:05:44;;;;;;;7.03;5.95;;;;;;;;;;5014609;28;20032;-62
2023/09/11 13:08:09;;;;;;;10.40;6.22;;;;;;;;;;5014883;28;20026;-62
2023/09/11 13:10:35;;;;;;;6.80;6.18;;;;;;;;;;4996679;28;20410;-62
2023/09/11 13:13:01;;;;;;;7.90;6.53;;;;;;;;;;5021488;28;20029;-63
2023/09/11 13:15:26;;;;;;;8.65;6.07;;;;;;;;;;5027963;28;20121;-64
2023/09/11 13:17:52;;;;;;;7.93;6.40;;;;;;;;;;5016487;28;20034;-65
2023/09/11 13:20:17;;;;;;;12.00;6.82;;;;;;;;;;5013280;28;20017;-64
2023/09/11 13:22:43;;;;;;;7.30;6.60;;;;;;;;;;5016234;28;20428;-64
2023/09/11 13:25:09;;;;;;;8.30;7.30;;;;;;;;;;5034056;28;20052;-64
2023/09/11 13:27:35;;;;;;;7.40;6.63;;;;;;;;;;5034049;28;20390;-64
2023/09/11 13:30:00;;;;;;;8.82;7.65;;;;;;;;;;5016251;28;20033;-64
2023/09/11 13:32:26;;;;;;;6.63;6.03;;;;;;;;;;5034196;28;20075;-64
2023/09/11 13:34:51;;;;;;;7.53;6.80;;;;;;;;;;5030717;28;20029;-64
2023/09/11 13:37:16;;;;;;;7.68;5.82;;;;;;;;;;5020373;28;20025;-64
2023/09/11 13:39:42;;;;;;;6.65;6.00;;;;;;;;;;5014864;28;20034;-64
2023/09/11 13:42:08;;;;;;;8.18;6.85;;;;;;;;;;5020519;28;20045;-64
2023/09/11 13:44:33;;;;;;;7.70;6.97;;;;;;;;;;5014023;28;20128;-64
2023/09/11 13:46:59;;;;;;;7.32;6.72;;;;;;;;;;5014412;28;20029;-64
2023/09/11 13:49:24;;;;;;;9.43;6.80;;;;;;;;;;5022454;28;20095;-64
2023/09/11 13:51:52;;;;;;;8.73;6.80;;;;;;;;;;5030582;28;20033;-64
2023/09/11 13:54:18;;;;;;;8.48;6.32;;;;;;;;;;5017310;28;20034;-64
2023/09/11 13:56:43;;;;;;;6.45;5.85;;;;;;;;;;5030347;28;20497;-64
2023/09/11 13:59:08;;;;;;;9.90;7.78;;;;;;;;;;5033632;28;20385;-64
2023/09/11 14:01:34;;;;;;;7.03;6.45;;;;;;;;;;5033964;28;20060;-64
2023/09/11 14:03:59;;;;;;;9.88;6.88;;;;;;;;;;5015809;28;20512;-64
2023/09/11 14:06:25;;;;;;;8.23;6.88;;;;;;;;;;5033812;28;20072;-64
2023/09/11 14:08:50;;;;;;;7.43;6.68;;;;;;;;;;5034029;28;20025;-64
2023/09/11 14:11:15;;;;;;;5.97;5.47;;;;;;;;;;4999773;28;20477;-63
2023/09/11 14:13:41;;;;;;;8.90;6.53;;;;;;;;;;5033890;28;20099;-63
2023/09/11 14:16:06;;;;;;;9.77;6.93;;;;;;;;;;5016270;28;20026;-64
2023/09/11 14:18:32;;;;;;;7.53;6.82;;;;;;;;;;5033432;28;20057;-64
2023/09/11 14:20:57;;;;;;;10.05;6.65;;;;;;;;;;5034015;28;20048;-64
2023/09/11 14:23:23;;;;;;;10.88;7.05;;;;;;;;;;5033964;28;20030;-64
2023/09/11 14:25:48;;;;;;;9.15;6.90;;;;;;;;;;5033612;28;20040;-64
2023/09/11 14:28:14;;;;;;;9.38;7.38;;;;;;;;;;5028030;28;20025;-64
2023/09/11 14:30:39;;;;;;;8.27;7.13;;;;;;;;;;5021827;28;20080;-64
2023/09/11 14:33:05;;;;;;;10.60;7.13;;;;;;;;;;5013526;28;20052;-64
2023/09/11 14:35:30;;;;;;;7.65;6.50;;;;;;;;;;5013483;28;20363;-64